Time;durP1;ratioP1;P1;durP2;ratioP2;P2;SDS_P1;SDS_P2;PMS_P1;PMS_P2;Temp;Humidity;BMP_temperature;BMP_pressure;BME280_temperature;BME280_humidity;BME280_pressure;Samples;Min_cycle;Max_cycle;Signal;HPM_P1;HPM_P2
2022/08/16 00:00:23;;;;;;;16.40;7.20;;;;;;;19.52;94.12;99805.50;5045792;28;20102;-74
2022/08/16 00:02:50;;;;;;;10.52;6.20;;;;;;;19.17;94.21;99764.56;5044827;28;20037;-74
2022/08/16 00:05:18;;;;;;;13.23;7.28;;;;;;;19.76;93.67;99832.81;5044257;28;20049;-74
2022/08/16 00:07:44;;;;;;;12.70;6.20;;;;;;;19.25;94.41;99745.63;5026266;28;20094;-73
2022/08/16 00:10:13;;;;;;;14.50;6.57;;;;;;;18.82;94.50;99703.22;5044384;28;20025;-73
2022/08/16 00:12:41;;;;;;;14.82;7.93;;;;;;;19.15;93.61;99718.53;5045117;28;20033;-73
2022/08/16 00:15:22;;;;;;;10.45;7.22;;;;;;;19.73;94.11;99822.28;5044189;28;20052;-74
2022/08/16 00:17:48;;;;;;;9.25;6.32;;;;;;;19.76;93.76;99831.94;5046898;28;20056;-74
2022/08/16 00:20:14;;;;;;;9.10;6.88;;;;;;;19.11;93.63;99717.00;5026108;28;20056;-74
2022/08/16 00:22:44;;;;;;;8.55;6.55;;;;;;;19.38;92.61;99718.31;5023919;28;20053;-74
2022/08/16 00:25:23;;;;;;;9.65;6.00;;;;;;;19.45;93.33;99731.34;5012726;28;20037;-73
2022/08/16 00:27:50;;;;;;;17.27;7.10;;;;;;;20.21;93.32;99838.66;5022638;28;20572;-74
2022/08/16 00:30:19;;;;;;;9.02;5.32;;;;;;;20.15;92.74;99830.97;5022886;28;20599;-74
2022/08/16 00:32:47;;;;;;;11.70;6.22;;;;;;;20.24;93.70;99833.16;5021268;28;20041;-73
2022/08/16 00:35:23;;;;;;;9.35;6.35;;;;;;;20.12;92.90;99825.78;5021540;28;20056;-74
2022/08/16 00:37:49;;;;;;;9.13;6.47;;;;;;;20.14;93.07;99837.25;5021822;28;20447;-75
2022/08/16 00:40:20;;;;;;;11.65;6.55;;;;;;;19.51;93.50;99723.94;5020572;28;20055;-74
2022/08/16 00:42:46;;;;;;;12.32;6.18;;;;;;;19.81;93.44;99774.88;5025365;28;20455;-74
2022/08/16 00:45:35;;;;;;;8.68;6.30;;;;;;;19.39;93.18;99720.06;5013161;28;20089;-74
2022/08/16 00:48:07;;;;;;;8.80;6.35;;;;;;;19.98;94.05;99835.31;5017137;28;20057;-74
2022/08/16 00:50:39;;;;;;;9.40;6.80;;;;;;;19.74;93.61;99776.09;5021923;28;20048;-74
2022/08/16 00:53:09;;;;;;;8.55;6.15;;;;;;;19.46;93.31;99707.34;5012390;28;20070;-74
2022/08/16 00:55:42;;;;;;;7.80;5.97;;;;;;;20.10;93.44;99825.84;5003626;28;20071;-74
2022/08/16 00:58:09;;;;;;;13.48;6.82;;;;;;;19.46;93.37;99717.13;5002487;28;20048;-75
2022/08/16 01:00:37;;;;;;;8.85;6.47;;;;;;;19.50;92.96;99735.53;5024106;28;20140;-74
2022/08/16 01:03:08;;;;;;;9.93;6.63;;;;;;;19.30;92.73;99711.66;5005862;28;20072;-74
2022/08/16 01:05:34;;;;;;;8.95;7.10;;;;;;;19.46;92.57;99752.56;5015205;28;20603;-74
2022/08/16 01:08:02;;;;;;;9.48;7.07;;;;;;;19.55;93.32;99762.78;5022374;28;20052;-74
2022/08/16 01:10:30;;;;;;;10.70;6.90;;;;;;;20.15;92.19;99833.63;5019382;28;20053;-73
2022/08/16 01:12:59;;;;;;;10.60;7.10;;;;;;;19.74;91.88;99736.19;5020432;28;20099;-73
2022/08/16 01:15:28;;;;;;;9.90;6.20;;;;;;;20.41;92.04;99821.66;5023078;28;20047;-74
2022/08/16 01:17:54;;;;;;;8.35;5.32;;;;;;;20.13;92.68;99788.41;5016057;28;20053;-74
2022/08/16 01:20:28;;;;;;;10.52;6.65;;;;;;;19.88;92.26;99726.63;5025482;28;20205;-74
2022/08/16 01:22:58;;;;;;;12.40;6.38;;;;;;;19.74;92.77;99711.38;5020017;28;20060;-75
2022/08/16 01:25:31;;;;;;;8.23;6.25;;;;;;;19.57;93.34;99699.72;5019546;28;20053;-74
2022/08/16 01:28:00;;;;;;;9.93;7.00;;;;;;;20.34;93.35;99825.56;4987906;28;20097;-75
2022/08/16 01:30:32;;;;;;;9.95;7.07;;;;;;;19.88;93.05;99731.97;5006713;28;20030;-74
2022/08/16 01:33:04;;;;;;;16.27;7.35;;;;;;;19.68;93.21;99717.84;5007345;28;20077;-74
2022/08/16 01:35:38;;;;;;;12.80;7.65;;;;;;;20.39;93.18;99842.19;4987770;28;21210;-74
2022/08/16 01:38:19;;;;;;;10.35;6.78;;;;;;;19.50;93.39;99692.97;5006698;28;20041;-73
2022/08/16 01:40:46;;;;;;;10.15;7.95;;;;;;;19.61;93.87;99714.56;5000369;28;20038;-74
2022/08/16 01:43:13;;;;;;;9.65;8.07;;;;;;;19.75;93.82;99716.59;4988634;28;20053;-73
2022/08/16 01:45:42;;;;;;;8.95;7.00;;;;;;;19.60;93.67;99710.19;5006146;28;20038;-73
2022/08/16 01:48:10;;;;;;;9.60;6.82;;;;;;;20.25;93.92;99805.56;5005501;28;20045;-74
2022/08/16 01:50:37;;;;;;;10.98;6.80;;;;;;;20.32;94.22;99820.34;4987198;28;20057;-74
2022/08/16 01:53:03;;;;;;;11.13;7.03;;;;;;;20.40;94.52;99823.47;4985284;28;20109;-74
2022/08/16 01:55:30;;;;;;;12.32;7.82;;;;;;;19.99;94.17;99770.47;5004612;28;20053;-75
2022/08/16 01:57:56;;;;;;;9.65;7.35;;;;;;;20.26;94.10;99806.47;5002565;28;20030;-74
2022/08/16 02:00:22;;;;;;;12.18;6.85;;;;;;;19.92;94.00;99757.50;4984880;28;20041;-75
2022/08/16 02:02:48;;;;;;;10.57;7.00;;;;;;;19.53;94.09;99706.09;4980729;28;20497;-74
2022/08/16 02:05:14;;;;;;;10.63;7.10;;;;;;;19.53;93.99;99715.91;5002606;28;20052;-75
2022/08/16 02:07:42;;;;;;;8.73;6.38;;;;;;;20.08;94.50;99813.53;5009010;28;20050;-74
2022/08/16 02:10:11;;;;;;;14.65;7.65;;;;;;;19.31;95.62;99708.06;5008743;28;20026;-74
2022/08/16 02:12:39;;;;;;;15.68;7.63;;;;;;;19.96;95.75;99809.69;5005774;28;20030;-74
2022/08/16 02:15:06;;;;;;;9.45;6.80;;;;;;;19.51;94.11;99723.09;4966055;28;20053;-73
2022/08/16 02:17:32;;;;;;;12.20;7.93;;;;;;;20.32;94.17;99820.34;4987168;28;20041;-73
2022/08/16 02:20:06;;;;;;;11.43;8.25;;;;;;;20.41;94.86;99822.53;4992288;28;20045;-74
2022/08/16 02:22:34;;;;;;;9.77;7.75;;;;;;;19.97;94.16;99737.72;4988090;28;20046;-74
2022/08/16 02:25:04;;;;;;;12.70;7.40;;;;;;;19.72;94.13;99714.09;5009947;28;20030;-74
2022/08/16 02:27:42;;;;;;;12.60;8.88;;;;;;;20.18;94.58;99766.84;5021303;28;20043;-75
2022/08/16 02:30:14;;;;;;;11.57;7.90;;;;;;;19.98;92.99;99712.78;5019997;28;20047;-74
2022/08/16 02:32:44;;;;;;;12.95;8.55;;;;;;;19.95;93.69;99710.28;5007437;28;20050;-74
2022/08/16 02:35:10;;;;;;;11.13;7.20;;;;;;;19.96;94.01;99778.59;5024774;28;20557;-74
2022/08/16 02:37:38;;;;;;;11.93;7.78;;;;;;;20.36;93.43;99813.91;5006863;28;20064;-74
2022/08/16 02:40:05;;;;;;;9.85;7.05;;;;;;;19.86;92.08;99715.22;5022451;28;20033;-74
2022/08/16 02:42:31;;;;;;;11.40;8.02;;;;;;;20.50;92.99;99794.56;5006238;28;20049;-74
2022/08/16 02:44:57;;;;;;;14.38;8.43;;;;;;;20.48;92.35;99804.44;4995726;28;20756;-75
2022/08/16 02:47:23;;;;;;;11.07;6.82;;;;;;;20.22;92.68;99784.44;5003004;28;20044;-75
2022/08/16 02:49:49;;;;;;;13.20;6.93;;;;;;;19.88;93.81;99708.00;5004357;28;20073;-75
2022/08/16 02:52:16;;;;;;;8.48;7.07;;;;;;;20.45;92.62;99816.09;5024570;28;20047;-74
2022/08/16 02:54:41;;;;;;;10.27;7.13;;;;;;;19.87;91.73;99722.25;5024540;28;20132;-75
2022/08/16 02:57:07;;;;;;;11.18;8.00;;;;;;;20.66;92.70;99824.00;5006675;28;20156;-74
2022/08/16 02:59:33;;;;;;;10.35;8.55;;;;;;;20.29;91.96;99792.97;5005396;28;20827;-74
2022/08/16 03:02:00;;;;;;;10.38;8.18;;;;;;;20.37;93.15;99778.34;5005574;28;20440;-74
2022/08/16 03:04:27;;;;;;;18.52;8.23;;;;;;;20.00;93.31;99729.56;5028786;28;20037;-74
2022/08/16 03:07:03;;;;;;;12.15;6.97;;;;;;;19.88;92.83;99731.97;5009334;28;20029;-74
2022/08/16 03:09:32;;;;;;;17.42;9.77;;;;;;;20.36;92.37;99832.56;5026266;28;20052;-75
2022/08/16 03:11:58;;;;;;;16.88;8.10;;;;;;;19.96;91.02;99735.97;5012959;28;20033;-75
2022/08/16 03:14:27;;;;;;;14.02;9.65;;;;;;;20.08;90.78;99753.16;5013609;28;20148;-75
2022/08/16 03:16:53;;;;;;;11.93;8.18;;;;;;;20.77;91.35;99837.66;5013629;28;20041;-74
2022/08/16 03:19:18;;;;;;;10.55;8.02;;;;;;;20.77;92.05;99828.78;5021895;28;20716;-75
2022/08/16 03:21:45;;;;;;;12.05;8.15;;;;;;;20.00;92.70;99742.88;5025625;28;20033;-75
2022/08/16 03:24:14;;;;;;;14.13;8.05;;;;;;;20.07;93.65;99772.75;4995671;28;20052;-74
2022/08/16 03:26:39;;;;;;;12.60;8.27;;;;;;;20.32;93.85;99840.78;5024840;28;20142;-74
2022/08/16 03:29:06;;;;;;;15.38;8.02;;;;;;;20.50;95.04;99853.19;5018703;28;20110;-75
2022/08/16 03:31:32;;;;;;;9.88;7.40;;;;;;;20.53;93.30;99837.03;5022085;28;20103;-75
2022/08/16 03:33:58;;;;;;;11.88;8.75;;;;;;;19.81;94.05;99747.41;5019956;28;20085;-74
2022/08/16 03:36:23;;;;;;;11.98;9.30;;;;;;;19.95;93.51;99734.25;5015841;28;20065;-74
2022/08/16 03:38:50;;;;;;;14.68;10.73;;;;;;;19.91;93.24;99730.03;5046085;28;20487;-75
2022/08/16 03:41:17;;;;;;;13.77;8.57;;;;;;;20.55;92.79;99840.50;5046702;28;20057;-74
2022/08/16 03:43:42;;;;;;;15.35;9.38;;;;;;;20.02;92.73;99753.47;5047258;28;20152;-75
2022/08/16 03:46:09;;;;;;;11.77;8.50;;;;;;;20.01;92.72;99760.56;5046077;28;20302;-75
2022/08/16 03:48:38;;;;;;;16.92;9.27;;;;;;;20.63;92.44;99864.16;5013580;28;20049;-75
2022/08/16 03:51:06;;;;;;;13.15;7.85;;;;;;;20.68;92.19;99846.09;5046790;28;20140;-73
2022/08/16 03:53:33;;;;;;;16.23;8.77;;;;;;;20.28;92.06;99789.47;5025489;28;20076;-73
2022/08/16 03:55:58;;;;;;;19.10;10.32;;;;;;;20.35;93.44;99803.34;5044533;28;20095;-73
2022/08/16 03:58:25;;;;;;;14.93;10.35;;;;;;;20.09;93.69;99757.56;5045534;28;20123;-74
2022/08/16 04:00:51;;;;;;;15.73;8.35;;;;;;;20.08;93.23;99774.44;5025494;28;20055;-75
2022/08/16 04:03:17;;;;;;;10.52;8.55;;;;;;;20.74;93.11;99847.59;5045763;28;20063;-76
2022/08/16 04:05:46;;;;;;;17.33;8.77;;;;;;;20.79;92.29;99854.44;5044231;28;20145;-75
2022/08/16 04:08:12;;;;;;;14.90;8.70;;;;;;;20.47;93.17;99825.84;5044155;28;20052;-74
2022/08/16 04:10:39;;;;;;;10.88;8.77;;;;;;;20.76;93.09;99845.72;5027471;28;20048;-73
2022/08/16 04:13:05;;;;;;;18.42;8.85;;;;;;;20.12;93.38;99735.22;5044689;28;20045;-73
2022/08/16 04:15:38;;;;;;;11.85;8.18;;;;;;;20.09;92.96;99741.56;5045050;28;20056;-73
2022/08/16 04:18:05;;;;;;;13.15;9.55;;;;;;;19.98;91.76;99726.13;5025681;28;20037;-74
2022/08/16 04:20:32;;;;;;;13.85;8.85;;;;;;;20.10;91.82;99737.09;5021805;28;20130;-75
2022/08/16 04:22:59;;;;;;;9.95;8.35;;;;;;;20.23;92.72;99722.22;5041010;28;20432;-75
2022/08/16 04:25:25;;;;;;;14.43;8.60;;;;;;;20.58;92.52;99770.19;5036840;28;20072;-74
2022/08/16 04:27:51;;;;;;;18.13;9.27;;;;;;;20.41;92.13;99744.38;5036913;28;20508;-73
2022/08/16 04:30:23;;;;;;;13.68;8.73;;;;;;;20.28;90.07;99735.31;5044919;28;20488;-75
2022/08/16 04:32:49;;;;;;;14.47;9.87;;;;;;;20.50;91.20;99751.06;5042944;28;20107;-76
2022/08/16 04:35:18;;;;;;;14.57;9.27;;;;;;;20.40;90.63;99742.66;5026256;28;20581;-75
2022/08/16 04:37:46;;;;;;;11.23;8.20;;;;;;;20.43;89.94;99735.38;5025118;28;20039;-73
2022/08/16 04:40:13;;;;;;;12.25;8.82;;;;;;;20.48;89.57;99748.44;5026425;28;20754;-74
2022/08/16 04:42:41;;;;;;;13.43;9.63;;;;;;;20.49;89.47;99730.69;5010905;28;20122;-74
2022/08/16 04:45:12;;;;;;;13.15;8.60;;;;;;;20.47;88.96;99740.56;5043566;28;20045;-74
2022/08/16 04:47:39;;;;;;;11.80;8.85;;;;;;;20.46;88.07;99734.34;5024646;28;20191;-74
2022/08/16 04:50:16;;;;;;;16.23;9.27;;;;;;;20.90;86.93;99765.00;5037248;28;20049;-75
2022/08/16 04:52:46;;;;;;;14.98;8.73;;;;;;;20.69;86.95;99737.66;5042612;28;20060;-74
2022/08/16 04:55:17;;;;;;;12.18;9.05;;;;;;;21.42;86.86;99851.16;5043364;28;20043;-75
2022/08/16 04:57:43;;;;;;;12.32;8.80;;;;;;;21.38;86.53;99843.38;5026630;28;20044;-75
2022/08/16 05:00:12;;;;;;;11.68;8.60;;;;;;;21.53;85.59;99850.56;5041490;28;20060;-74
2022/08/16 05:02:40;;;;;;;11.00;8.20;;;;;;;21.13;85.54;99779.78;5032572;28;20464;-75
2022/08/16 05:05:07;;;;;;;16.98;9.25;;;;;;;21.58;86.18;99844.97;5024563;28;20102;-75
2022/08/16 05:07:34;;;;;;;14.15;8.90;;;;;;;21.05;86.05;99740.19;5041954;28;20136;-75
2022/08/16 05:10:01;;;;;;;13.27;8.55;;;;;;;21.41;84.12;99789.84;5040940;28;20090;-75
2022/08/16 05:12:27;;;;;;;10.52;8.38;;;;;;;21.62;83.21;99811.81;5045266;28;20037;-74
2022/08/16 05:14:55;;;;;;;11.27;8.00;;;;;;;21.83;83.36;99831.13;5022335;28;20045;-74
2022/08/16 05:17:21;;;;;;;12.50;7.72;;;;;;;21.66;84.37;99797.38;5014774;28;20061;-75
2022/08/16 05:19:48;;;;;;;16.33;9.13;;;;;;;21.81;83.08;99836.53;5038006;28;20064;-74
2022/08/16 05:22:14;;;;;;;12.43;8.13;;;;;;;21.31;82.42;99732.56;5025361;28;20373;-74
2022/08/16 05:24:39;;;;;;;12.77;8.40;;;;;;;22.08;81.54;99841.31;5039170;28;20400;-73
2022/08/16 05:27:05;;;;;;;12.32;8.45;;;;;;;22.08;80.90;99775.34;5016751;28;20064;-74
2022/08/16 05:29:31;;;;;;;11.13;7.85;;;;;;;22.59;79.23;99782.22;5016946;28;20060;-75
2022/08/16 05:31:58;;;;;;;13.10;7.75;;;;;;;22.68;78.48;99730.84;5002683;28;20124;-74
2022/08/16 05:34:25;;;;;;;21.48;9.40;;;;;;;23.30;77.55;99782.34;5000449;28;20049;-72
2022/08/16 05:36:51;;;;;;;9.35;7.97;;;;;;;23.59;75.54;99761.72;5021081;28;20107;-72
2022/08/16 05:39:19;;;;;;;10.77;7.60;;;;;;;24.34;73.99;99830.16;5019755;28;20099;-74
2022/08/16 05:41:46;;;;;;;20.45;8.57;;;;;;;23.89;73.06;99739.28;5010492;28;20042;-73
2022/08/16 05:44:16;;;;;;;18.67;8.80;;;;;;;24.05;72.04;99725.72;4988199;28;20697;-74
2022/08/16 05:46:47;;;;;;;8.95;6.93;;;;;;;24.46;71.64;99746.19;5002460;28;20111;-74
2022/08/16 05:49:15;;;;;;;15.02;7.85;;;;;;;24.72;69.66;99744.41;5014662;28;20034;-74
2022/08/16 05:51:42;;;;;;;23.13;9.82;;;;;;;25.23;69.29;99849.16;5014338;28;20112;-74
2022/08/16 05:54:10;;;;;;;13.85;8.95;;;;;;;24.71;70.08;99784.78;5013044;28;20124;-73
2022/08/16 05:56:36;;;;;;;12.93;9.25;;;;;;;25.24;69.83;99809.75;5023546;28;20140;-74
2022/08/16 05:59:03;;;;;;;25.77;9.38;;;;;;;24.95;68.70;99741.94;5024324;28;20060;-73
2022/08/16 06:01:29;;;;;;;10.32;8.02;;;;;;;25.35;68.23;99736.44;4995429;28;20041;-74
2022/08/16 06:03:55;;;;;;;11.73;7.97;;;;;;;25.47;66.34;99744.50;5024839;28;20032;-82
2022/08/16 06:06:20;;;;;;;10.60;8.30;;;;;;;25.79;66.89;99799.53;4977550;28;20050;-76
2022/08/16 06:08:46;;;;;;;9.90;5.40;;;;;;;25.76;63.53;99763.00;5014694;28;20172;-79
2022/08/16 06:11:12;;;;;;;12.80;8.52;;;;;;;26.06;65.25;99858.53;5011182;28;20056;-76
2022/08/16 06:13:38;;;;;;;12.57;7.82;;;;;;;25.80;64.06;99759.13;4995987;28;20568;-83
2022/08/16 06:16:05;;;;;;;9.70;5.22;;;;;;;26.01;63.31;99763.88;4996049;28;20068;-76
2022/08/16 06:18:31;;;;;;;11.45;6.65;;;;;;;26.08;63.48;99755.25;4999648;28;20084;-78
2022/08/16 06:21:06;;;;;;;10.68;5.72;;;;;;;26.48;62.61;99818.59;4965141;28;20501;-74
2022/08/16 06:23:31;;;;;;;21.45;5.97;;;;;;;26.79;61.74;99845.94;4995844;28;20847;-81
2022/08/16 06:25:57;;;;;;;10.27;6.75;;;;;;;26.65;62.10;99841.59;4982299;28;20041;-72
2022/08/16 06:28:30;;;;;;;10.50;6.65;;;;;;;26.57;62.07;99806.31;4962698;28;20061;-69
2022/08/16 06:30:56;;;;;;;17.35;7.10;;;;;;;26.08;63.37;99741.81;4963169;28;20039;-76
2022/08/16 06:33:22;;;;;;;13.20;7.28;;;;;;;26.65;62.34;99833.53;4977676;28;20069;-80
2022/08/16 06:35:48;;;;;;;11.00;7.22;;;;;;;26.21;61.83;99773.16;4980770;28;20126;-80
2022/08/16 06:38:13;;;;;;;15.98;6.70;;;;;;;26.52;63.60;99847.84;4952632;28;20129;-73
2022/08/16 06:40:39;;;;;;;13.48;7.68;;;;;;;25.73;63.63;99755.16;4970089;28;20034;-72
2022/08/16 06:43:05;;;;;;;10.50;6.75;;;;;;;26.56;63.00;99855.75;4961328;28;20379;-79
2022/08/16 06:45:31;;;;;;;9.10;6.38;;;;;;;26.14;62.61;99779.97;4979712;28;20087;-78
2022/08/16 06:47:56;;;;;;;11.52;6.40;;;;;;;26.57;62.66;99858.31;4974509;28;20082;-72
2022/08/16 06:50:22;;;;;;;11.57;6.88;;;;;;;25.77;64.38;99763.84;4980013;28;20046;-73
2022/08/16 06:52:48;;;;;;;15.50;6.90;;;;;;;25.97;63.34;99784.78;4978767;28;20482;-75
2022/08/16 06:55:14;;;;;;;9.02;7.55;;;;;;;26.10;65.20;99858.16;4961551;28;20077;-73
2022/08/16 06:57:40;;;;;;;11.15;6.78;;;;;;;26.07;64.11;99814.53;4978945;28;20448;-71
2022/08/16 07:00:11;;;;;;;10.95;6.47;;;;;;;26.40;65.02;99862.25;4976243;28;20054;-70
2022/08/16 07:02:37;;;;;;;19.05;7.15;;;;;;;25.70;64.12;99764.28;4962436;28;20089;-71
2022/08/16 07:05:05;;;;;;;13.15;7.25;;;;;;;26.25;63.88;99864.25;4977582;28;20050;-67
2022/08/16 07:07:31;;;;;;;12.02;7.45;;;;;;;26.32;63.32;99862.81;4976720;28;20058;-72
2022/08/16 07:09:57;;;;;;;12.70;7.40;;;;;;;25.75;63.68;99773.84;4976927;28;20050;-73
2022/08/16 07:12:22;;;;;;;8.80;6.45;;;;;;;26.23;63.33;99849.22;4981555;28;20051;-71
2022/08/16 07:14:48;;;;;;;11.00;7.75;;;;;;;25.66;64.47;99780.75;4963911;28;20454;-70
2022/08/16 07:17:14;;;;;;;8.60;6.03;;;;;;;26.22;63.62;99851.03;4980281;28;20042;-70
2022/08/16 07:19:40;;;;;;;10.13;6.63;;;;;;;26.21;63.64;99860.06;4981999;28;20174;-73
2022/08/16 07:22:06;;;;;;;13.18;6.93;;;;;;;25.83;63.11;99782.22;4979919;28;20058;-69
2022/08/16 07:24:32;;;;;;;15.30;7.60;;;;;;;25.98;63.15;99805.28;4982191;28;20576;-72
2022/08/16 07:27:05;;;;;;;11.75;6.80;;;;;;;25.83;62.75;99780.38;4965414;28;20065;-71
2022/08/16 07:29:31;;;;;;;9.60;7.22;;;;;;;25.80;63.28;99809.28;4985250;28;20037;-71
2022/08/16 07:31:57;;;;;;;13.68;6.70;;;;;;;26.27;62.93;99866.81;4987010;28;20106;-71
2022/08/16 07:34:22;;;;;;;14.57;5.55;;;;;;;26.16;62.85;99856.88;4986767;28;20525;-70
2022/08/16 07:36:48;;;;;;;15.32;5.93;;;;;;;26.10;62.82;99833.09;4967657;28;20046;-74
2022/08/16 07:39:14;;;;;;;9.48;6.35;;;;;;;25.86;61.13;99790.03;4967082;28;21261;-70
2022/08/16 07:41:40;;;;;;;10.85;6.85;;;;;;;26.07;61.84;99836.03;4983517;28;20129;-71
2022/08/16 07:44:06;;;;;;;12.32;6.75;;;;;;;25.71;62.18;99757.09;4980091;28;20066;-70
2022/08/16 07:46:34;;;;;;;10.85;6.55;;;;;;;25.92;62.23;99800.38;4986390;28;20066;-71
2022/08/16 07:49:01;;;;;;;13.43;7.57;;;;;;;26.33;61.89;99853.75;4965819;28;20054;-68
2022/08/16 07:51:26;;;;;;;32.70;8.93;;;;;;;25.85;62.07;99766.84;4983161;28;20069;-68
2022/08/16 07:53:52;;;;;;;12.13;8.00;;;;;;;25.88;61.50;99772.84;4959005;28;20497;-69
2022/08/16 07:56:18;;;;;;;12.50;9.60;;;;;;;26.01;60.98;99797.03;4985647;28;20060;-70
2022/08/16 07:58:44;;;;;;;22.70;17.90;;;;;;;25.72;62.32;99769.56;4986531;28;20114;-71
2022/08/16 08:01:10;;;;;;;16.33;13.98;;;;;;;25.78;62.21;99774.50;4984567;28;20123;-70
2022/08/16 08:03:36;;;;;;;20.08;14.95;;;;;;;26.26;62.32;99868.66;4987935;28;20049;-71
2022/08/16 08:06:02;;;;;;;21.75;12.73;;;;;;;26.38;62.11;99857.97;4986480;28;22203;-71
2022/08/16 08:08:28;;;;;;;24.65;17.63;;;;;;;26.47;61.45;99858.13;4984483;28;20065;-71
2022/08/16 08:10:54;;;;;;;12.65;10.48;;;;;;;26.48;61.29;99859.84;4988858;28;20070;-69
2022/08/16 08:13:20;;;;;;;22.08;18.80;;;;;;;26.48;61.44;99848.22;4987356;28;20598;-72
2022/08/16 08:15:45;;;;;;;13.35;8.68;;;;;;;26.47;60.79;99843.81;4985602;28;20054;-71
2022/08/16 08:18:12;;;;;;;31.08;20.30;;;;;;;26.03;61.39;99772.69;4985610;28;20482;-68
2022/08/16 08:20:43;;;;;;;12.20;6.88;;;;;;;26.58;59.82;99846.59;4984478;28;20438;-73
2022/08/16 08:23:11;;;;;;;30.65;21.42;;;;;;;26.38;61.15;99826.53;4968653;28;20042;-68
2022/08/16 08:25:38;;;;;;;16.33;12.70;;;;;;;26.49;60.90;99845.41;4986709;28;20065;-67
2022/08/16 08:28:04;;;;;;;16.08;13.48;;;;;;;26.25;59.71;99771.94;4980328;28;20053;-70
2022/08/16 08:30:30;;;;;;;39.17;24.15;;;;;;;26.10;60.37;99763.19;4964647;28;20077;-68
2022/08/16 08:32:56;;;;;;;31.33;23.20;;;;;;;26.21;60.45;99782.06;4980876;28;20955;-69
2022/08/16 08:35:22;;;;;;;12.20;8.35;;;;;;;26.64;60.95;99854.19;4981143;28;20050;-68
2022/08/16 08:37:47;;;;;;;33.40;25.30;;;;;;;26.64;60.49;99854.19;4981803;28;20046;-68
2022/08/16 08:40:13;;;;;;;19.55;13.80;;;;;;;26.30;59.35;99785.91;4983254;28;20049;-67
2022/08/16 08:42:42;;;;;;;31.17;20.92;;;;;;;26.17;59.69;99752.81;4965841;28;20566;-68
2022/08/16 08:45:09;;;;;;;25.38;18.88;;;;;;;26.75;59.90;99850.69;4982712;28;20033;-69
2022/08/16 08:47:35;;;;;;;25.58;9.13;;;;;;;26.72;58.32;99799.78;4980455;28;20046;-69
2022/08/16 08:50:02;;;;;;;12.50;8.70;;;;;;;26.74;57.97;99793.28;4982944;28;20069;-68
2022/08/16 08:52:28;;;;;;;11.40;7.78;;;;;;;27.11;57.65;99847.00;4965012;28;20042;-69
2022/08/16 08:54:53;;;;;;;18.38;13.80;;;;;;;27.17;57.88;99833.03;4983100;28;20116;-69
2022/08/16 08:57:19;;;;;;;18.45;11.48;;;;;;;27.18;58.33;99839.25;4983677;28;20097;-69
2022/08/16 08:59:45;;;;;;;22.05;14.38;;;;;;;27.31;57.83;99841.91;4980239;28;20061;-67
2022/08/16 09:02:15;;;;;;;13.32;9.68;;;;;;;26.87;57.80;99777.03;4975940;28;20042;-67
2022/08/16 09:04:44;;;;;;;16.67;12.32;;;;;;;27.13;57.67;99764.19;4981752;28;20105;-69
2022/08/16 09:07:11;;;;;;;30.83;24.42;;;;;;;27.12;58.40;99840.63;4961750;28;20045;-68
2022/08/16 09:09:37;;;;;;;23.17;16.80;;;;;;;27.39;57.18;99838.59;4980000;28;20116;-71
2022/08/16 09:12:03;;;;;;;25.98;14.90;;;;;;;27.02;57.47;99742.69;4982353;28;20045;-70
2022/08/16 09:14:29;;;;;;;21.42;15.93;;;;;;;26.86;58.82;99780.72;4981047;28;20690;-67
2022/08/16 09:16:55;;;;;;;17.58;11.90;;;;;;;27.74;57.81;99833.91;4982719;28;20054;-69
2022/08/16 09:19:21;;;;;;;14.60;8.57;;;;;;;28.25;56.46;99829.78;4979311;28;20052;-69
2022/08/16 09:21:48;;;;;;;20.52;15.48;;;;;;;27.88;54.85;99781.59;4981594;28;20038;-69
2022/08/16 09:24:15;;;;;;;20.70;16.92;;;;;;;27.69;57.13;99830.72;4980630;28;20427;-76
2022/08/16 09:26:40;;;;;;;13.10;9.45;;;;;;;28.04;54.10;99772.22;4982458;28;20065;-72
2022/08/16 09:29:06;;;;;;;10.20;8.82;;;;;;;28.27;54.18;99791.91;4982000;28;20498;-72
2022/08/16 09:31:31;;;;;;;17.00;8.93;;;;;;;28.90;54.46;99792.81;4983763;28;20400;-71
2022/08/16 09:33:57;;;;;;;16.15;12.05;;;;;;;28.95;54.88;99830.25;4979179;28;20074;-69
2022/08/16 09:36:23;;;;;;;15.18;6.28;;;;;;;28.70;52.54;99751.31;4982290;28;20041;-72
2022/08/16 09:38:49;;;;;;;12.77;9.88;;;;;;;29.51;52.13;99827.16;4961232;28;20544;-72
2022/08/16 09:41:15;;;;;;;15.80;10.88;;;;;;;28.90;49.62;99741.50;4961206;28;20074;-72
2022/08/16 09:43:42;;;;;;;13.57;9.88;;;;;;;30.01;50.47;99835.28;4980999;28;20101;-71
2022/08/16 09:46:08;;;;;;;16.50;14.32;;;;;;;29.03;51.75;99792.59;4981177;28;25620;-72
2022/08/16 09:48:40;;;;;;;12.32;8.07;;;;;;;29.21;49.58;99749.63;4963654;28;20489;-70
2022/08/16 09:51:09;;;;;;;;;;;;;;;30.22;47.69;99840.59;4979384;28;20045;-70
2022/08/16 09:53:36;;;;;;;11.15;8.95;;;;;;;30.84;48.06;99841.25;4979062;28;19927;-71
2022/08/16 09:56:06;;;;;;;15.48;12.45;;;;;;;29.57;48.24;99786.06;4959597;28;20058;-72
2022/08/16 09:58:32;;;;;;;14.23;7.97;;;;;;;30.22;46.67;99821.66;4983758;28;20082;-70
2022/08/16 10:00:58;;;;;;;13.95;10.27;;;;;;;30.00;46.40;99741.59;4982082;28;20138;-71
2022/08/16 10:03:23;;;;;;;11.68;7.95;;;;;;;30.71;45.52;99740.44;4981176;28;20072;-70
2022/08/16 10:05:49;;;;;;;17.52;12.35;;;;;;;30.52;46.00;99803.59;4963399;28;20053;-71
2022/08/16 10:08:17;;;;;;;14.38;9.43;;;;;;;30.24;47.88;99819.66;4979638;28;22655;-70
2022/08/16 10:13:10;;;;;;;14.18;9.98;;;;;;;31.54;45.75;99822.81;4977951;28;20042;-71
2022/08/16 10:13:32;;;;;;;9.48;7.72;;;;;;;31.11;44.95;99742.03;4981142;28;20058;-73
2022/08/16 10:15:58;;;;;;;15.13;12.20;;;;;;;30.45;46.81;99751.03;4980668;28;20593;-70
2022/08/16 10:18:29;;;;;;;15.13;7.93;;;;;;;31.83;44.77;99831.81;4963323;28;20547;-71
2022/08/16 10:20:57;;;;;;;15.52;10.15;;;;;;;30.40;46.02;99758.72;4979312;28;20502;-71
2022/08/16 10:23:23;;;;;;;10.15;7.93;;;;;;;31.80;43.77;99821.28;4978110;28;20043;-71
2022/08/16 10:25:49;;;;;;;9.43;7.35;;;;;;;31.58;41.23;99795.38;4944364;28;20059;-71
2022/08/16 10:28:15;;;;;;;9.60;7.20;;;;;;;32.07;42.72;99738.97;4979520;28;20113;-70
2022/08/16 10:30:42;;;;;;;10.15;6.63;;;;;;;31.92;40.86;99749.50;4978008;28;20490;-69
2022/08/16 10:33:09;;;;;;;12.40;9.80;;;;;;;30.79;44.24;99721.59;4979448;28;20050;-70
2022/08/16 10:35:35;;;;;;;9.07;6.00;;;;;;;31.11;40.74;99725.78;4961013;28;20132;-71
2022/08/16 10:38:01;;;;;;;8.00;6.75;;;;;;;32.32;42.30;99802.50;4980187;28;20125;-71
2022/08/16 10:40:27;;;;;;;11.95;10.55;;;;;;;31.63;41.34;99788.53;4960722;28;20043;-71
2022/08/16 10:42:52;;;;;;;8.23;6.45;;;;;;;31.51;42.10;99792.41;4961170;28;20486;-71
2022/08/16 10:45:18;;;;;;;11.93;7.28;;;;;;;31.19;42.87;99785.53;4981785;28;20042;-70
2022/08/16 10:47:44;;;;;;;8.82;7.22;;;;;;;31.42;41.83;99731.81;4981263;28;20050;-68
2022/08/16 10:50:10;;;;;;;7.07;4.95;;;;;;;31.33;43.10;99790.47;4981386;28;20069;-69
2022/08/16 10:52:36;;;;;;;10.57;8.75;;;;;;;30.45;43.28;99713.97;4980336;28;20029;-69
2022/08/16 10:55:02;;;;;;;14.85;7.35;;;;;;;31.38;42.25;99790.03;4982336;28;20493;-69
2022/08/16 10:57:30;;;;;;;13.10;7.55;;;;;;;32.19;39.84;99783.88;4983296;28;20054;-69
2022/08/16 10:59:56;;;;;;;10.80;9.25;;;;;;;31.62;40.50;99702.72;4963855;28;20047;-70
2022/08/16 11:02:23;;;;;;;15.27;10.60;;;;;;;31.40;40.51;99777.22;4979916;28;20055;-70
2022/08/16 11:04:49;;;;;;;11.05;8.57;;;;;;;32.20;39.93;99774.75;4986034;28;20100;-70
2022/08/16 11:07:21;;;;;;;10.55;8.98;;;;;;;32.53;38.59;99770.47;4982911;28;20498;-69
2022/08/16 11:09:46;;;;;;;7.20;5.35;;;;;;;31.63;38.43;99680.00;4982949;28;20039;-69
2022/08/16 11:12:12;;;;;;;11.05;7.88;;;;;;;31.90;39.66;99719.78;4963002;28;20701;-69
2022/08/16 11:14:37;;;;;;;17.38;6.97;;;;;;;32.96;37.61;99770.59;4983413;28;20073;-70
2022/08/16 11:17:05;;;;;;;10.43;5.65;;;;;;;32.36;39.00;99698.00;4980951;28;20163;-70
2022/08/16 11:19:32;;;;;;;8.88;6.40;;;;;;;32.35;39.29;99761.47;4980988;28;20030;-69
2022/08/16 11:21:58;;;;;;;7.88;6.45;;;;;;;32.12;38.10;99693.19;4964506;28;20453;-69
2022/08/16 11:24:24;;;;;;;10.25;6.72;;;;;;;32.12;40.43;99720.34;4962630;28;20073;-69
2022/08/16 11:26:51;;;;;;;14.10;6.80;;;;;;;32.79;36.46;99761.50;4983437;28;20046;-71